Studley, Kansas
Current Conditions -  °F | °C
As of 5:53 AM on Thursday 29 Jan 2015 (Local Time) from KHLC Reporting Station
Clear Clear  
Wind Chill: 24°   Ceiling: Unl
Heat Index: 32°   Visibility: 10mi
Dew Point: 26°   Wind: 9mph
Humidity: 79%   Direction: 320°NW
Pressure: 30.36"   Gusts: NA
Location:  39.2633°N, 100.442°W
Report Text: KHLC 291153Z AUTO 32008KT 10SM CLR 00/M03 A3036 RMK AO2 SLP286 T00001033 10083 20000 53024
Loading
Personal Weather Stations






























Interactive Weather Map New forecast layout! Learn more

10-Day Weather Forecast

Advertisements
Track Severe Weather on mobile